Time;durP1;ratioP1;P1;durP2;ratioP2;P2;SDS_P1;SDS_P2;PMS_P1;PMS_P2;Temp;Humidity;BMP_temperature;BMP_pressure;BME280_temperature;BME280_humidity;BME280_pressure;Samples;Min_cycle;Max_cycle;Signal;HPM_P1;HPM_P2
2022/04/05 05:11:33;;;;;;;7.47;2.25;;;22.00;78.70;;;;;;5086752;28;20136;-70
2022/04/05 05:14:01;;;;;;;6.72;2.22;;;22.10;78.80;;;;;;5052500;28;20122;-70
2022/04/05 05:16:28;;;;;;;11.77;2.65;;;22.10;79.60;;;;;;5072963;28;20502;-71
2022/04/05 05:18:55;;;;;;;11.60;2.65;;;22.00;79.50;;;;;;5054614;28;20063;-70
2022/04/05 05:21:23;;;;;;;13.18;2.70;;;22.00;80.10;;;;;;5055942;28;20486;-70
2022/04/05 05:23:50;;;;;;;13.13;2.33;;;22.10;80.00;;;;;;5073276;28;20390;-70
2022/04/05 05:26:17;;;;;;;11.32;2.50;;;22.10;80.40;;;;;;5055599;28;20090;-70
2022/04/05 05:28:44;;;;;;;7.72;2.40;;;22.10;80.70;;;;;;5055762;28;20037;-70
2022/04/05 05:31:12;;;;;;;11.55;2.15;;;22.20;81.20;;;;;;5073311;28;20036;-70
2022/04/05 05:33:39;;;;;;;7.22;2.60;;;22.10;80.60;;;;;;5055700;28;20051;-70
2022/04/05 05:36:06;;;;;;;16.83;2.53;;;22.10;80.80;;;;;;5054810;28;20040;-70
2022/04/05 05:38:33;;;;;;;19.02;2.80;;;22.20;80.60;;;;;;5055755;28;20037;-71
2022/04/05 05:41:01;;;;;;;11.82;2.17;;;22.10;81.10;;;;;;5064228;28;20453;-70
2022/04/05 05:43:28;;;;;;;11.05;2.60;;;22.10;80.30;;;;;;5055589;28;20040;-71
2022/04/05 05:45:55;;;;;;;6.35;2.28;;;22.10;80.30;;;;;;5073312;28;20033;-70
2022/04/05 05:48:22;;;;;;;11.13;2.10;;;22.10;80.60;;;;;;5072642;28;20125;-69
2022/04/05 05:50:51;;;;;;;12.82;2.45;;;22.00;79.70;;;;;;5072465;28;20025;-67
2022/04/05 05:53:18;;;;;;;6.72;1.90;;;22.00;79.70;;;;;;5073170;28;20029;-67
2022/04/05 05:55:46;;;;;;;8.25;2.08;;;22.00;79.30;;;;;;5054871;28;20402;-67
2022/04/05 05:58:14;;;;;;;10.30;2.05;;;22.00;80.10;;;;;;5072901;28;20238;-67
2022/04/05 06:00:41;;;;;;;7.43;2.10;;;22.00;80.70;;;;;;5053931;28;20663;-67
2022/04/05 06:03:09;;;;;;;8.32;2.30;;;22.00;80.30;;;;;;5054704;28;20352;-67
2022/04/05 06:05:36;;;;;;;6.57;1.80;;;22.00;81.00;;;;;;5038463;28;20162;-68
2022/04/05 06:08:06;;;;;;;4.97;1.58;;;22.00;81.20;;;;;;5072818;28;20558;-68
2022/04/05 06:10:34;;;;;;;8.52;2.00;;;21.90;80.70;;;;;;5072516;28;20037;-68
2022/04/05 06:13:01;;;;;;;7.32;1.88;;;21.90;81.40;;;;;;5054557;28;20045;-70
2022/04/05 06:15:29;;;;;;;9.70;1.85;;;21.90;81.00;;;;;;5054421;28;20040;-70
2022/04/05 06:17:58;;;;;;;8.00;2.22;;;21.90;81.10;;;;;;5038038;28;20059;-70
2022/04/05 06:20:25;;;;;;;11.95;2.10;;;21.90;81.20;;;;;;5065220;28;20044;-71
2022/04/05 06:22:56;;;;;;;16.02;2.50;;;21.90;80.70;;;;;;5054676;28;20403;-71
2022/04/05 06:25:29;;;;;;;6.93;2.00;;;21.90;80.90;;;;;;5072281;28;20055;-71
2022/04/05 06:27:57;;;;;;;7.88;2.13;;;21.80;81.20;;;;;;5040879;28;20036;-73
2022/04/05 06:30:25;;;;;;;5.40;1.90;;;21.90;80.80;;;;;;5000916;28;20055;-73
2022/04/05 06:32:52;;;;;;;6.13;2.10;;;21.80;81.70;;;;;;5018552;28;20459;-71
2022/04/05 06:35:19;;;;;;;7.28;2.10;;;21.80;82.30;;;;;;5034536;28;20037;-70
2022/04/05 06:37:46;;;;;;;6.53;1.88;;;21.80;82.80;;;;;;5045834;28;20037;-71
2022/04/05 06:40:15;;;;;;;7.40;2.20;;;21.80;83.00;;;;;;5053526;28;20040;-70
2022/04/05 06:42:43;;;;;;;11.88;2.20;;;21.80;83.40;;;;;;5071789;28;20494;-70
2022/04/05 06:45:12;;;;;;;6.97;1.98;;;21.80;83.30;;;;;;5054484;28;20052;-70
2022/04/05 06:47:39;;;;;;;7.55;1.98;;;21.80;83.20;;;;;;5026649;28;20037;-71
2022/04/05 06:50:07;;;;;;;7.55;2.22;;;21.80;83.30;;;;;;5023689;28;20547;-71
2022/04/05 06:52:38;;;;;;;6.55;1.80;;;21.70;83.50;;;;;;5054222;28;20036;-72
2022/04/05 06:55:06;;;;;;;6.88;1.92;;;21.70;83.20;;;;;;5064739;28;20533;-71
2022/04/05 06:57:33;;;;;;;15.15;1.98;;;21.70;82.80;;;;;;5061901;28;20254;-71
2022/04/05 07:00:00;;;;;;;6.10;2.03;;;21.70;82.90;;;;;;5072527;28;20104;-71
2022/04/05 07:02:27;;;;;;;7.28;1.90;;;21.70;82.80;;;;;;5037687;28;20552;-69
2022/04/05 07:04:54;;;;;;;4.40;1.70;;;21.70;83.10;;;;;;5071903;28;20479;-69
2022/04/05 07:07:22;;;;;;;10.23;2.63;;;21.70;83.60;;;;;;5063735;28;20487;-69
2022/04/05 07:09:49;;;;;;;5.95;1.67;;;21.70;83.60;;;;;;5051883;28;20178;-70
2022/04/05 07:12:16;;;;;;;10.65;1.80;;;21.60;83.50;;;;;;5058595;28;20048;-70
2022/04/05 07:14:43;;;;;;;10.70;2.50;;;21.60;83.60;;;;;;5012747;28;20444;-70
2022/04/05 07:17:10;;;;;;;9.77;2.03;;;21.60;83.90;;;;;;5047766;28;20076;-70
2022/04/05 07:19:37;;;;;;;6.88;2.13;;;21.60;84.20;;;;;;5053375;28;20047;-70
2022/04/05 07:22:05;;;;;;;6.75;2.20;;;21.60;84.60;;;;;;5071244;28;20043;-70
2022/04/05 07:24:32;;;;;;;7.35;1.95;;;21.60;84.80;;;;;;5071508;28;20036;-70
2022/04/05 07:26:59;;;;;;;7.55;2.05;;;21.60;84.70;;;;;;5071121;28;20024;-70
2022/04/05 07:29:26;;;;;;;6.22;1.88;;;21.50;85.00;;;;;;5070518;28;20025;-71
2022/04/05 07:31:54;;;;;;;8.60;2.60;;;21.50;85.20;;;;;;5053535;28;20478;-70
2022/04/05 07:34:21;;;;;;;6.05;1.95;;;21.50;85.40;;;;;;5070380;28;20059;-72
2022/04/05 07:36:48;;;;;;;5.35;1.70;;;21.40;85.50;;;;;;5070969;28;20079;-71
2022/04/05 07:39:15;;;;;;;5.50;1.48;;;21.50;85.60;;;;;;5071015;28;20036;-72
2022/04/05 07:41:43;;;;;;;5.22;1.73;;;21.40;85.50;;;;;;5071235;28;20031;-78
2022/04/05 07:44:10;;;;;;;5.75;1.80;;;21.40;85.50;;;;;;5053061;28;20055;-76
2022/04/05 07:46:37;;;;;;;5.80;1.80;;;21.40;85.80;;;;;;5052533;28;20035;-74
2022/04/05 07:49:04;;;;;;;9.80;2.10;;;21.40;86.30;;;;;;5070713;28;20032;-74
2022/04/05 07:51:31;;;;;;;5.60;1.80;;;21.30;86.50;;;;;;5036871;28;20486;-73
2022/04/05 07:53:58;;;;;;;5.97;1.80;;;21.30;86.30;;;;;;5052707;28;20398;-74
2022/04/05 07:56:26;;;;;;;4.63;1.60;;;21.30;86.30;;;;;;5036086;28;20036;-74
2022/04/05 07:58:53;;;;;;;7.97;1.80;;;21.30;86.50;;;;;;5052759;28;20056;-75
2022/04/05 08:01:20;;;;;;;6.35;1.75;;;21.30;86.60;;;;;;5070066;28;20536;-73
2022/04/05 08:03:47;;;;;;;5.32;1.52;;;21.30;86.40;;;;;;5070715;28;20056;-73
2022/04/05 08:06:15;;;;;;;5.38;1.45;;;21.30;86.40;;;;;;5070378;28;20024;-75
2022/04/05 08:08:42;;;;;;;4.88;1.80;;;21.30;86.50;;;;;;5052310;28;20086;-75
2022/04/05 08:11:09;;;;;;;6.07;1.73;;;21.30;86.50;;;;;;5053300;28;20025;-78
2022/04/05 08:13:36;;;;;;;10.05;1.92;;;21.30;86.40;;;;;;5075302;28;20044;-74
2022/04/05 08:16:04;;;;;;;4.85;1.70;;;21.30;86.30;;;;;;5066329;28;20024;-73
2022/04/05 08:18:31;;;;;;;6.55;2.00;;;21.20;86.20;;;;;;5090965;28;20048;-73
2022/04/05 08:20:58;;;;;;;6.88;1.73;;;21.20;86.20;;;;;;5090721;28;20032;-75
2022/04/05 08:23:26;;;;;;;6.70;1.65;;;21.20;86.30;;;;;;5090872;28;20571;-74
2022/04/05 08:25:53;;;;;;;6.25;1.60;;;21.20;86.30;;;;;;5074597;28;20090;-74
2022/04/05 08:28:21;;;;;;;3.75;1.73;;;21.20;86.20;;;;;;5035857;28;20028;-77
2022/04/05 08:30:49;;;;;;;5.65;1.80;;;21.20;86.00;;;;;;5035921;28;20394;-78
2022/04/05 08:33:17;;;;;;;9.27;2.45;;;21.20;86.00;;;;;;5052650;28;20049;-77
2022/04/05 08:35:44;;;;;;;21.42;2.03;;;21.20;86.10;;;;;;5084044;28;20032;-78
2022/04/05 08:38:11;;;;;;;4.90;1.58;;;21.20;86.00;;;;;;5072543;28;20352;-77
2022/04/05 08:40:38;;;;;;;4.57;1.88;;;21.20;86.00;;;;;;5072215;28;20382;-78
2022/04/05 08:43:05;;;;;;;4.97;1.77;;;21.20;85.80;;;;;;5076637;28;20036;-78
2022/04/05 08:45:33;;;;;;;3.85;1.65;;;21.20;86.00;;;;;;5065147;28;20036;-78
2022/04/05 08:48:00;;;;;;;4.85;1.52;;;21.20;86.00;;;;;;5056495;28;20559;-79
2022/04/05 08:50:29;;;;;;;7.53;2.28;;;21.20;86.10;;;;;;5056113;28;20059;-71
2022/04/05 08:52:59;;;;;;;7.77;1.90;;;21.20;86.00;;;;;;5073835;28;20028;-72
2022/04/05 08:55:29;;;;;;;7.82;2.25;;;21.20;86.00;;;;;;5084577;28;20043;-70
2022/04/05 08:57:56;;;;;;;;;;;21.20;86.10;;;;;;5060849;28;20051;-72
2022/04/05 09:00:24;;;;;;;4.05;1.63;;;21.20;86.00;;;;;;5040312;28;20271;-70
2022/04/05 09:03:01;;;;;;;4.50;1.35;;;21.20;85.90;;;;;;5056413;28;20039;-75
2022/04/05 09:05:28;;;;;;;5.30;1.30;;;21.20;85.80;;;;;;5065965;28;20039;-75
2022/04/05 09:08:16;;;;;;;5.68;1.70;;;21.20;85.70;;;;;;5094474;28;20401;-73
2022/04/05 09:10:44;;;;;;;3.47;1.52;;;21.20;85.70;;;;;;5079181;28;20082;-75
2022/04/05 09:13:12;;;;;;;5.07;1.63;;;21.20;85.50;;;;;;5075910;28;20402;-78
2022/04/05 09:15:41;;;;;;;5.82;1.90;;;21.10;85.50;;;;;;5047426;28;20402;-73
2022/04/05 09:18:08;;;;;;;5.90;1.98;;;21.20;85.60;;;;;;5056002;28;20504;-75
2022/04/05 09:20:46;;;;;;;4.80;1.70;;;21.20;85.50;;;;;;5073776;28;20033;-72
2022/04/05 09:23:31;;;;;;;5.72;1.88;;;21.10;85.60;;;;;;5055969;28;20040;-73
2022/04/05 09:26:02;;;;;;;5.78;1.40;;;21.10;85.50;;;;;;5070171;28;20121;-73
2022/04/05 09:28:40;;;;;;;5.78;2.15;;;21.10;85.40;;;;;;5093912;28;20059;-73
2022/04/05 09:31:08;;;;;;;5.43;2.00;;;21.00;85.60;;;;;;5093803;28;20031;-74
2022/04/05 09:33:38;;;;;;;7.45;1.98;;;21.00;85.50;;;;;;5067161;28;20024;-77
2022/04/05 09:36:07;;;;;;;4.05;1.75;;;21.00;85.50;;;;;;5088508;28;20186;-73
2022/04/05 09:38:34;;;;;;;9.43;2.00;;;21.00;85.50;;;;;;5075385;28;20052;-73
2022/04/05 09:41:18;;;;;;;7.75;2.00;;;21.00;85.50;;;;;;5075404;28;20047;-71
2022/04/05 09:43:53;;;;;;;7.18;1.98;;;21.00;85.80;;;;;;5076365;28;20032;-73
2022/04/05 09:46:21;;;;;;;8.23;2.00;;;21.00;85.70;;;;;;5057929;28;20403;-72
2022/04/05 09:48:48;;;;;;;3.50;1.70;;;21.00;85.90;;;;;;5055517;28;20032;-73
2022/04/05 09:51:19;;;;;;;5.90;1.85;;;21.00;85.70;;;;;;5038567;28;20036;-73
2022/04/05 09:53:51;;;;;;;5.13;1.75;;;21.00;86.00;;;;;;5072395;28;20036;-73
2022/04/05 09:56:32;;;;;;;7.68;1.83;;;21.00;86.30;;;;;;5054471;28;20028;-71
2022/04/05 09:59:06;;;;;;;5.53;1.70;;;21.00;86.60;;;;;;5055276;28;20056;-74
2022/04/05 10:01:35;;;;;;;6.97;2.08;;;21.00;86.70;;;;;;5071665;28;20032;-75
2022/04/05 10:04:11;;;;;;;3.95;1.73;;;21.00;87.00;;;;;;5055444;28;20414;-71
2022/04/05 10:06:41;;;;;;;6.05;1.67;;;21.00;87.30;;;;;;5021933;28;20032;-78
2022/04/05 10:09:08;;;;;;;5.28;1.50;;;21.00;87.60;;;;;;5038500;28;20036;-77
2022/04/05 10:11:37;;;;;;;6.63;1.42;;;21.00;87.80;;;;;;5037963;28;20473;-72
2022/04/05 10:14:05;;;;;;;5.10;1.65;;;21.00;87.80;;;;;;5066321;28;20029;-71
2022/04/05 10:16:33;;;;;;;8.35;1.65;;;20.90;87.80;;;;;;5058104;28;20032;-73
2022/04/05 10:19:03;;;;;;;3.22;1.40;;;20.90;87.90;;;;;;5093249;28;20067;-74
2022/04/05 10:21:31;;;;;;;10.65;2.15;;;20.90;87.90;;;;;;5075417;28;20032;-74
2022/04/05 10:23:58;;;;;;;6.78;1.98;;;20.80;88.00;;;;;;5065341;28;20037;-79
2022/04/05 10:26:28;;;;;;;6.53;1.70;;;20.80;88.10;;;;;;5085929;28;20028;-78
2022/04/05 10:28:57;;;;;;;6.07;1.80;;;20.80;88.10;;;;;;5057173;28;20032;-78
2022/04/05 10:31:31;;;;;;;5.15;1.80;;;20.80;88.10;;;;;;5069044;28;20031;-76
2022/04/05 10:34:19;;;;;;;8.23;1.92;;;20.80;88.20;;;;;;5083489;28;20063;-72
2022/04/05 10:37:05;;;;;;;7.00;1.85;;;20.80;88.20;;;;;;5061805;28;20491;-74
2022/04/05 10:39:32;;;;;;;5.32;1.70;;;20.80;88.30;;;;;;5060691;28;20139;-71
2022/04/05 10:42:15;;;;;;;4.30;1.52;;;20.80;88.40;;;;;;5076468;28;20419;-75
2022/04/05 10:45:19;;;;;;;6.43;2.00;;;20.80;88.40;;;;;;5076085;28;20040;-75
2022/04/05 10:47:59;;;;;;;5.80;1.60;;;20.80;88.50;;;;;;5094690;28;20457;-75
2022/04/05 10:50:27;;;;;;;5.43;1.50;;;20.80;88.40;;;;;;5071743;28;20026;-75
2022/04/05 10:53:15;;;;;;;5.95;1.98;;;20.80;88.40;;;;;;5080547;28;20069;-76
2022/04/05 10:56:03;;;;;;;8.07;1.83;;;20.80;88.40;;;;;;5080461;28;20032;-74
2022/04/05 10:58:36;;;;;;;7.05;2.08;;;20.80;88.60;;;;;;5082159;28;20044;-75
2022/04/05 11:01:24;;;;;;;7.15;1.75;;;20.80;88.60;;;;;;5079281;28;20579;-74
2022/04/05 11:04:29;;;;;;;5.93;1.73;;;20.70;88.60;;;;;;5090486;28;20039;-75
2022/04/05 11:07:02;;;;;;;5.82;1.50;;;20.80;88.50;;;;;;5052363;28;20043;-75
2022/04/05 11:09:33;;;;;;;5.18;1.60;;;20.80;88.50;;;;;;5085967;28;20032;-72
2022/04/05 11:12:05;;;;;;;5.43;1.88;;;20.80;88.40;;;;;;5066676;28;20068;-71
2022/04/05 11:14:41;;;;;;;6.30;1.80;;;20.80;88.40;;;;;;5052358;28;20034;-74
2022/04/05 11:17:09;;;;;;;5.50;1.60;;;20.80;88.40;;;;;;5073085;28;20040;-72
2022/04/05 11:47:54;;;;;;;3.28;1.50;;;20.70;88.70;;;;;;5101694;27;20121;-74
2022/04/05 11:50:22;;;;;;;4.22;1.48;;;20.60;88.70;;;;;;5100150;28;20453;-74
2022/04/05 11:52:49;;;;;;;6.68;1.90;;;20.70;88.80;;;;;;5085781;27;20035;-74
2022/04/05 11:58:03;;;;;;;3.53;1.52;;;20.60;88.80;;;;;;5109698;27;20169;-74
2022/04/05 12:00:30;;;;;;;6.20;1.73;;;20.60;88.90;;;;;;5103165;27;20020;-74
2022/04/05 12:03:06;;;;;;;5.30;1.70;;;20.60;89.00;;;;;;5109416;27;20408;-74
2022/04/05 12:05:46;;;;;;;4.15;1.58;;;20.70;89.00;;;;;;5107334;28;20030;-74
2022/04/05 12:08:17;;;;;;;7.70;1.80;;;20.60;89.00;;;;;;5078328;27;20381;-73
2022/04/05 12:10:44;;;;;;;4.70;1.63;;;20.60;88.90;;;;;;5110360;28;20031;-72
2022/04/05 12:13:12;;;;;;;7.57;1.45;;;20.60;89.00;;;;;;5095263;28;20062;-77
2022/04/05 12:15:39;;;;;;;4.55;1.38;;;20.60;89.00;;;;;;5105841;28;20046;-73
2022/04/05 12:18:20;;;;;;;3.38;1.23;;;20.50;89.10;;;;;;5089740;27;20047;-76
2022/04/05 12:21:03;;;;;;;7.63;1.58;;;20.60;89.10;;;;;;5092958;28;20123;-76
2022/04/05 12:23:31;;;;;;;6.32;1.77;;;20.50;89.10;;;;;;5068671;28;20044;-76
2022/04/05 12:26:09;;;;;;;7.80;1.30;;;20.50;89.20;;;;;;5124253;28;20382;-76
2022/04/05 12:28:38;;;;;;;6.70;1.70;;;20.50;89.20;;;;;;5099461;28;20028;-76
2022/04/05 12:31:19;;;;;;;6.60;1.67;;;20.50;89.30;;;;;;5092543;28;20119;-76
2022/04/05 12:34:11;;;;;;;6.82;1.42;;;20.50;89.50;;;;;;5063007;28;20105;-76
2022/04/05 12:36:57;;;;;;;4.25;1.33;;;20.50;89.50;;;;;;5063787;28;20063;-76
2022/04/05 12:39:28;;;;;;;3.50;1.10;;;20.50;89.50;;;;;;5089597;28;20126;-76
2022/04/05 12:42:00;;;;;;;7.20;1.40;;;20.40;89.50;;;;;;5090502;28;20036;-77
2022/04/05 12:44:32;;;;;;;4.18;1.45;;;20.50;89.60;;;;;;5116900;28;20393;-77
2022/04/05 12:47:09;;;;;;;4.20;1.50;;;20.50;89.50;;;;;;5089761;28;20371;-76
2022/04/05 22:21:41;;;;;;;5.80;2.13;;;17.80;96.70;;;;;;5099221;28;20272;-75
2022/04/05 22:24:08;;;;;;;7.20;2.10;;;17.90;96.90;;;;;;5092608;28;20104;-77
2022/04/05 22:26:35;;;;;;;9.98;2.47;;;17.90;96.90;;;;;;5074775;28;20036;-78
2022/04/05 22:29:02;;;;;;;12.93;2.40;;;17.90;97.00;;;;;;5075246;28;20031;-76
2022/04/05 22:31:30;;;;;;;10.45;2.40;;;17.90;97.00;;;;;;5106857;28;20066;-77
2022/04/05 22:33:58;;;;;;;9.93;2.50;;;18.00;97.10;;;;;;5116010;27;20426;-76
2022/04/05 22:36:26;;;;;;;6.05;2.45;;;18.00;97.20;;;;;;5094572;27;20122;-76
2022/04/05 22:38:53;;;;;;;6.88;2.38;;;18.00;97.20;;;;;;5133131;27;20419;-77
2022/04/05 22:41:21;;;;;;;6.90;2.17;;;17.90;97.00;;;;;;5131462;27;20042;-77
2022/04/05 22:43:48;;;;;;;7.57;2.40;;;17.90;97.10;;;;;;5113740;27;20035;-76
2022/04/05 22:46:16;;;;;;;8.43;3.05;;;17.80;97.10;;;;;;5115933;27;20034;-76
2022/04/05 22:48:44;;;;;;;9.05;2.53;;;17.80;97.10;;;;;;5132804;27;20027;-76
2022/04/05 22:51:11;;;;;;;8.68;2.10;;;17.80;97.10;;;;;;5133075;27;20027;-77
2022/04/05 22:53:38;;;;;;;8.68;2.03;;;17.80;97.20;;;;;;5115615;27;20123;-76
2022/04/05 22:56:05;;;;;;;7.38;1.90;;;17.80;97.20;;;;;;5115379;27;20426;-77
2022/04/05 22:58:33;;;;;;;5.45;2.13;;;17.70;97.20;;;;;;5115184;27;20121;-77
2022/04/05 23:01:00;;;;;;;7.97;2.10;;;17.70;97.10;;;;;;5114811;27;20027;-77
2022/04/05 23:03:27;;;;;;;9.52;3.28;;;17.70;97.20;;;;;;5097762;27;20114;-77
2022/04/05 23:05:54;;;;;;;11.20;2.33;;;17.80;97.40;;;;;;5115365;27;20042;-77
2022/04/05 23:08:21;;;;;;;8.82;2.80;;;17.80;97.50;;;;;;5115622;27;20026;-78
2022/04/05 23:10:48;;;;;;;9.45;3.15;;;17.90;97.50;;;;;;5098764;27;20035;-77
2022/04/05 23:13:16;;;;;;;7.40;2.33;;;17.80;97.50;;;;;;5132373;27;20063;-78
2022/04/05 23:15:43;;;;;;;10.57;2.97;;;17.80;97.40;;;;;;5115450;27;20445;-78
2022/04/05 23:18:10;;;;;;;10.52;2.67;;;17.80;97.40;;;;;;5133827;27;20047;-78
2022/04/05 23:20:37;;;;;;;15.68;4.30;;;17.80;97.40;;;;;;5133967;27;20081;-77
